createdAt,value
2019-01-13T00:01:09.881Z,94.20
2019-01-13T00:03:38.397Z,93.98
2019-01-13T00:06:06.954Z,94.04
2019-01-13T00:08:35.375Z,93.68
2019-01-13T00:11:03.962Z,93.03
2019-01-13T00:13:32.378Z,92.92
2019-01-13T00:16:00.862Z,93.30
2019-01-13T00:18:29.572Z,93.21
2019-01-13T00:20:57.991Z,93.55
2019-01-13T00:23:26.405Z,93.60
2019-01-13T00:25:55.076Z,93.64
2019-01-13T00:28:23.491Z,93.82
2019-01-13T00:30:51.986Z,94.02
2019-01-13T00:33:20.478Z,93.98
2019-01-13T00:35:48.971Z,94.36
2019-01-13T00:38:17.386Z,93.64
2019-01-13T00:40:45.830Z,93.81
2019-01-13T00:43:14.246Z,94.17
2019-01-13T00:45:42.672Z,94.00
2019-01-13T00:48:11.144Z,93.83
2019-01-13T00:50:39.541Z,94.25
2019-01-13T00:53:07.958Z,93.67
2019-01-13T00:55:36.558Z,93.59
2019-01-13T00:58:05.306Z,93.96
2019-01-13T01:00:33.796Z,94.17
2019-01-13T01:03:02.250Z,93.97
2019-01-13T01:05:31.111Z,94.64
2019-01-13T01:07:59.598Z,94.71
2019-01-13T01:10:28.199Z,94.61
2019-01-13T01:12:57.029Z,94.53
2019-01-13T01:15:25.550Z,94.13
2019-01-13T01:17:54.135Z,94.09
2019-01-13T01:20:22.662Z,94.08
2019-01-13T01:22:51.275Z,94.11
2019-01-13T01:25:19.743Z,94.38
2019-01-13T01:27:48.255Z,94.71
2019-01-13T01:30:20.375Z,95.06
2019-01-13T01:32:49.159Z,94.77
2019-01-13T01:35:17.921Z,94.73
2019-01-13T01:37:46.879Z,94.49
2019-01-13T01:40:17.304Z,94.72
2019-01-13T01:42:46.274Z,95.35
2019-01-13T01:45:16.835Z,96.10
2019-01-13T01:47:45.290Z,96.69
2019-01-13T01:50:14.250Z,97.50
2019-01-13T01:52:43.004Z,97.64
2019-01-13T01:55:14.086Z,97.35
2019-01-13T01:57:42.654Z,97.16
2019-01-13T02:00:17.119Z,96.95
2019-01-13T02:02:46.009Z,97.29
2019-01-13T02:05:14.502Z,96.83
2019-01-13T02:07:43.009Z,96.54
2019-01-13T02:10:19.582Z,95.85
2019-01-13T02:12:48.242Z,95.44
2019-01-13T02:15:19.533Z,95.61
2019-01-13T02:17:48.108Z,95.28
2019-01-13T02:20:18.762Z,95.09
2019-01-13T02:22:47.818Z,95.15
2019-01-13T02:25:19.250Z,95.11
2019-01-13T02:27:47.806Z,95.03
2019-01-13T02:30:18.982Z,94.62
2019-01-13T02:32:47.474Z,93.86
2019-01-13T02:35:15.962Z,94.63
2019-01-13T02:37:44.451Z,94.80
2019-01-13T02:40:17.856Z,94.69
2019-01-13T02:42:46.411Z,94.27
2019-01-13T02:45:17.607Z,94.45
2019-01-13T02:47:46.126Z,94.52
2019-01-13T02:50:14.880Z,94.46
2019-01-13T02:52:43.300Z,94.87
2019-01-13T02:55:11.978Z,94.67
2019-01-13T02:57:40.561Z,95.17
2019-01-13T03:00:12.082Z,95.03
2019-01-13T03:02:40.619Z,94.77
2019-01-13T03:05:10.894Z,94.83
2019-01-13T03:07:39.298Z,94.66
2019-01-13T03:10:10.786Z,94.69
2019-01-13T03:12:39.379Z,94.62
2019-01-13T03:15:09.636Z,94.84
2019-01-13T03:17:38.083Z,94.55
2019-01-13T03:20:09.657Z,94.78
2019-01-13T03:22:38.153Z,94.84
2019-01-13T03:25:12.359Z,94.97
2019-01-13T03:27:40.834Z,94.50
2019-01-13T03:30:15.302Z,94.84
2019-01-13T03:32:43.729Z,94.40
2019-01-13T03:35:12.376Z,94.43
2019-01-13T03:37:40.891Z,94.68
2019-01-13T03:40:12.530Z,95.22
2019-01-13T03:42:40.942Z,95.30
2019-01-13T03:45:10.639Z,95.38
2019-01-13T03:47:39.128Z,95.39
2019-01-13T03:50:10.627Z,95.75
2019-01-13T03:52:39.140Z,95.75
2019-01-13T03:55:09.095Z,96.11
2019-01-13T03:57:37.582Z,95.91
2019-01-13T04:00:11.758Z,96.29
2019-01-13T04:02:40.249Z,95.58
2019-01-13T04:05:08.815Z,96.25
2019-01-13T04:07:37.325Z,96.65
2019-01-13T04:10:08.984Z,96.64
2019-01-13T04:12:37.481Z,96.80
2019-01-13T04:15:11.385Z,96.31
2019-01-13T04:17:40.062Z,96.22
2019-01-13T04:20:08.632Z,96.32
2019-01-13T04:22:37.069Z,96.20
2019-01-13T04:25:05.924Z,95.78
2019-01-13T04:27:34.341Z,95.72
2019-01-13T04:30:02.858Z,96.00
2019-01-13T04:32:31.276Z,96.55
2019-01-13T04:34:59.691Z,97.29
2019-01-13T04:37:28.144Z,97.49
2019-01-13T04:39:56.564Z,98.18
2019-01-13T04:42:24.983Z,98.27
2019-01-13T04:44:53.446Z,99.38
2019-01-13T04:47:21.864Z,99.60
2019-01-13T04:49:50.376Z,99.82
2019-01-13T04:52:18.896Z,99.55
2019-01-13T04:54:47.306Z,98.92
2019-01-13T04:57:15.719Z,98.74
2019-01-13T04:59:44.166Z,98.63
2019-01-13T05:02:12.613Z,98.80
2019-01-13T05:04:41.073Z,98.07
2019-01-13T05:07:09.528Z,97.54
2019-01-13T05:09:37.950Z,97.67
2019-01-13T05:12:06.389Z,98.33
2019-01-13T05:14:34.913Z,98.03
2019-01-13T05:17:03.394Z,98.45
2019-01-13T05:19:31.843Z,98.71
2019-01-13T05:22:00.303Z,98.89
2019-01-13T05:24:28.722Z,99.31
2019-01-13T05:26:57.146Z,99.58
2019-01-13T05:29:25.700Z,99.84
2019-01-13T05:31:54.123Z,99.53
2019-01-13T05:34:22.551Z,99.80
2019-01-13T05:36:51.001Z,100.00
2019-01-13T05:39:19.417Z,99.90
2019-01-13T05:41:47.902Z,100.00
2019-01-13T05:44:18.057Z,100.00
2019-01-13T05:46:46.497Z,100.00
2019-01-13T05:49:14.922Z,99.83
2019-01-13T05:51:43.441Z,98.98
2019-01-13T05:54:11.927Z,99.30
2019-01-13T05:56:40.344Z,98.62
2019-01-13T05:59:08.794Z,98.52
2019-01-13T06:01:37.282Z,98.92
2019-01-13T06:04:05.770Z,98.64
2019-01-13T06:06:34.214Z,99.27
2019-01-13T06:09:02.633Z,98.96
2019-01-13T06:11:31.055Z,98.58
2019-01-13T06:13:59.654Z,98.16
2019-01-13T06:16:28.069Z,98.04
2019-01-13T06:18:56.491Z,97.58
2019-01-13T06:21:24.946Z,98.56
2019-01-13T06:23:53.363Z,98.39
2019-01-13T06:26:21.782Z,98.97
2019-01-13T06:28:50.246Z,99.01
2019-01-13T06:31:18.727Z,99.03
2019-01-13T06:33:47.151Z,98.99
2019-01-13T06:36:15.755Z,98.90
2019-01-13T06:38:44.188Z,98.60
2019-01-13T06:41:12.591Z,98.78
2019-01-13T06:43:41.055Z,98.74
2019-01-13T06:46:09.611Z,98.53
2019-01-13T06:48:38.026Z,98.22
2019-01-13T06:51:06.549Z,97.88
2019-01-13T06:53:34.966Z,97.66
2019-01-13T06:56:03.387Z,98.18
2019-01-13T06:58:31.918Z,98.07
2019-01-13T07:01:00.347Z,98.02
2019-01-13T07:03:28.782Z,97.58
2019-01-13T07:05:57.262Z,97.22
2019-01-13T07:08:25.685Z,96.80
2019-01-13T07:10:54.105Z,96.74
2019-01-13T07:13:22.591Z,97.10
2019-01-13T07:15:51.078Z,97.32
2019-01-13T07:18:19.625Z,97.20
2019-01-13T07:20:48.096Z,96.94
2019-01-13T07:23:16.547Z,96.95
2019-01-13T07:25:45.004Z,97.32
2019-01-13T07:28:13.517Z,97.00
2019-01-13T07:30:41.938Z,97.74
2019-01-13T07:33:10.369Z,97.79
2019-01-13T07:35:38.815Z,97.41
2019-01-13T07:38:07.234Z,98.41
2019-01-13T07:40:35.662Z,99.15
2019-01-13T07:43:04.255Z,98.56
2019-01-13T07:45:32.675Z,99.02
2019-01-13T07:48:01.105Z,99.81
2019-01-13T07:50:29.565Z,100.00
2019-01-13T07:52:58.008Z,100.00
2019-01-13T07:55:26.499Z,100.00
2019-01-13T07:57:55.151Z,100.00
2019-01-13T08:00:28.888Z,100.00
2019-01-13T08:02:57.340Z,100.00
2019-01-13T08:05:26.274Z,100.00
2019-01-13T08:07:54.695Z,100.00
2019-01-13T08:10:23.211Z,100.00
2019-01-13T08:12:51.719Z,100.00
2019-01-13T08:15:21.379Z,100.00
2019-01-13T08:17:49.940Z,100.00
2019-01-13T08:20:23.854Z,100.00
2019-01-13T08:22:52.418Z,100.00
2019-01-13T08:25:20.904Z,100.00
2019-01-13T08:27:49.471Z,100.00
2019-01-13T08:30:19.658Z,100.00
2019-01-13T08:32:48.315Z,100.00
2019-01-13T08:35:17.442Z,100.00
2019-01-13T08:37:45.935Z,100.00
2019-01-13T08:40:16.490Z,100.00
2019-01-13T08:42:44.953Z,100.00
2019-01-13T08:45:13.929Z,100.00
2019-01-13T08:47:42.432Z,100.00
2019-01-13T08:50:16.156Z,100.00
2019-01-13T08:52:44.780Z,100.00
2019-01-13T08:55:13.432Z,100.00
2019-01-13T08:57:41.952Z,100.00
2019-01-13T09:00:13.432Z,100.00
2019-01-13T09:02:41.852Z,100.00
2019-01-13T09:05:10.455Z,100.00
2019-01-13T09:07:38.879Z,100.00
2019-01-13T09:10:10.350Z,100.00
2019-01-13T09:12:38.897Z,100.00
2019-01-13T09:15:13.309Z,100.00
2019-01-13T09:17:41.731Z,100.00
2019-01-13T09:20:15.486Z,100.00
2019-01-13T09:22:43.979Z,100.00
2019-01-13T09:25:12.467Z,100.00
2019-01-13T09:27:41.006Z,100.00
2019-01-13T09:30:18.082Z,100.00
2019-01-13T09:32:46.747Z,100.00
2019-01-13T09:35:15.236Z,100.00
2019-01-13T09:37:43.727Z,100.00
2019-01-13T09:40:18.158Z,100.00
2019-01-13T09:42:46.584Z,100.00
2019-01-13T09:45:15.154Z,100.00
2019-01-13T09:47:43.748Z,100.00
2019-01-13T09:50:14.705Z,100.00
2019-01-13T09:52:43.298Z,100.00
2019-01-13T09:55:14.702Z,100.00
2019-01-13T09:57:43.366Z,100.00
2019-01-13T10:00:17.625Z,100.00
2019-01-13T10:02:46.737Z,100.00
2019-01-13T10:05:15.349Z,100.00
2019-01-13T10:07:43.776Z,100.00
2019-01-13T10:10:13.447Z,100.00
2019-01-13T10:12:42.007Z,100.00
2019-01-13T10:15:16.003Z,100.00
2019-01-13T10:17:44.487Z,100.00
2019-01-13T10:20:14.651Z,100.00
2019-01-13T10:22:43.215Z,100.00
2019-01-13T10:25:12.738Z,100.00
2019-01-13T10:27:41.233Z,100.00
2019-01-13T10:30:21.509Z,100.00
2019-01-13T10:35:40.889Z,100.00
2019-01-13T10:38:09.663Z,100.00
2019-01-13T10:40:38.514Z,100.00
2019-01-13T10:43:07.080Z,100.00
2019-01-13T10:45:35.496Z,100.00
2019-01-13T10:48:04.513Z,100.00
2019-01-13T10:50:33.585Z,100.00
2019-01-13T10:53:02.834Z,100.00
2019-01-13T10:55:31.617Z,100.00
2019-01-13T10:58:00.111Z,100.00
2019-01-13T11:00:33.052Z,100.00
2019-01-13T11:03:02.678Z,100.00
2019-01-13T11:05:31.404Z,100.00
2019-01-13T11:07:59.960Z,100.00
2019-01-13T11:10:28.383Z,100.00
2019-01-13T11:12:57.236Z,100.00
2019-01-13T11:15:25.822Z,100.00
2019-01-13T11:17:54.259Z,100.00
2019-01-13T11:20:25.615Z,100.00
2019-01-13T11:22:54.425Z,100.00
2019-01-13T11:25:22.867Z,99.70
2019-01-13T11:27:51.657Z,99.77
2019-01-13T11:30:22.965Z,100.00
2019-01-13T11:32:51.814Z,99.21
2019-01-13T11:35:20.603Z,99.10
2019-01-13T11:37:49.272Z,99.16
2019-01-13T11:40:20.718Z,98.67
2019-01-13T11:42:49.838Z,98.98
2019-01-13T11:45:18.707Z,98.72
2019-01-13T11:47:47.600Z,98.73
2019-01-13T11:50:18.830Z,99.33
2019-01-13T11:52:47.674Z,99.35
2019-01-13T11:55:17.728Z,99.95
2019-01-13T11:57:46.465Z,99.97
2019-01-13T12:00:17.877Z,99.92
2019-01-13T12:02:46.664Z,100.00
2019-01-13T12:05:16.140Z,100.00
2019-01-13T12:07:45.593Z,100.00
2019-01-13T12:10:17.257Z,100.00
2019-01-13T12:12:46.314Z,99.59
2019-01-13T12:15:16.636Z,99.20
2019-01-13T12:17:45.574Z,99.00
2019-01-13T12:20:16.652Z,99.09
2019-01-13T12:22:45.501Z,98.52
2019-01-13T12:25:16.074Z,98.98
2019-01-13T12:27:45.289Z,98.75
2019-01-13T12:30:28.439Z,98.56
2019-01-13T12:32:57.634Z,97.95
2019-01-13T12:35:26.363Z,97.70
2019-01-13T12:37:54.892Z,96.86
2019-01-13T12:40:25.907Z,96.13
2019-01-13T12:42:54.473Z,96.19
2019-01-13T12:45:24.219Z,96.20
2019-01-13T12:47:53.403Z,95.91
2019-01-13T12:50:24.782Z,95.33
2019-01-13T12:52:53.623Z,95.35
2019-01-13T12:55:22.501Z,95.33
2019-01-13T12:57:51.286Z,95.39
2019-01-13T13:00:20.920Z,94.98
2019-01-13T13:02:49.456Z,94.79
2019-01-13T13:05:17.968Z,95.02
2019-01-13T13:07:47.294Z,94.69
2019-01-13T13:10:34.473Z,94.70
2019-01-13T13:13:02.917Z,94.51
2019-01-13T13:15:31.342Z,94.73
2019-01-13T13:18:00.094Z,95.48
2019-01-13T13:20:28.866Z,95.95
2019-01-13T13:22:57.810Z,95.74
2019-01-13T13:25:31.884Z,96.49
2019-01-13T13:27:57.200Z,96.83
2019-01-13T13:30:28.961Z,97.25
2019-01-13T13:32:58.017Z,98.38
2019-01-13T13:35:26.928Z,99.10
2019-01-13T13:37:55.703Z,99.86
2019-01-13T13:40:26.200Z,100.00
2019-01-13T13:42:55.035Z,100.00
2019-01-13T13:45:23.574Z,100.00
2019-01-13T13:47:52.615Z,100.00
2019-01-13T13:50:24.337Z,100.00
2019-01-13T13:52:54.089Z,100.00
2019-01-13T13:55:23.351Z,100.00
2019-01-13T13:57:52.220Z,100.00
2019-01-13T14:00:29.797Z,100.00
2019-01-13T14:02:58.380Z,100.00
2019-01-13T14:05:27.044Z,100.00
2019-01-13T14:07:55.556Z,100.00
2019-01-13T14:10:27.181Z,100.00
2019-01-13T14:12:55.960Z,100.00
2019-01-13T14:15:24.987Z,100.00
2019-01-13T14:17:53.421Z,100.00
2019-01-13T14:20:22.219Z,100.00
2019-01-13T14:22:51.084Z,100.00
2019-01-13T14:25:19.664Z,100.00
2019-01-13T14:27:48.421Z,100.00
2019-01-13T14:30:22.204Z,100.00
2019-01-13T14:32:50.996Z,100.00
2019-01-13T14:35:19.658Z,100.00
2019-01-13T14:37:48.984Z,100.00
2019-01-13T14:40:23.125Z,100.00
2019-01-13T14:42:51.722Z,100.00
2019-01-13T14:45:22.315Z,100.00
2019-01-13T14:47:50.764Z,100.00
2019-01-13T14:50:21.137Z,100.00
2019-01-13T14:52:50.206Z,100.00
2019-01-13T14:55:18.874Z,100.00
2019-01-13T14:57:47.783Z,100.00
2019-01-13T15:00:22.232Z,100.00
2019-01-13T15:02:50.914Z,100.00
2019-01-13T15:05:19.624Z,100.00
2019-01-13T15:07:48.327Z,100.00
2019-01-13T15:10:21.583Z,100.00
2019-01-13T15:12:50.369Z,100.00
2019-01-13T15:15:19.552Z,100.00
2019-01-13T15:17:48.321Z,100.00
2019-01-13T15:20:18.603Z,100.00
2019-01-13T15:22:47.325Z,100.00
2019-01-13T15:25:18.922Z,100.00
2019-01-13T15:27:47.605Z,100.00
2019-01-13T15:30:25.492Z,100.00
2019-01-13T15:32:53.931Z,100.00
2019-01-13T15:35:22.379Z,100.00
2019-01-13T15:37:51.227Z,100.00
2019-01-13T15:40:21.010Z,100.00
2019-01-13T15:42:49.874Z,100.00
2019-01-13T15:45:18.892Z,100.00
2019-01-13T15:47:47.579Z,100.00
2019-01-13T15:50:21.580Z,100.00
2019-01-13T15:52:50.116Z,100.00
2019-01-13T15:55:18.885Z,100.00
2019-01-13T15:57:47.659Z,100.00
2019-01-13T16:00:24.805Z,100.00
2019-01-13T16:02:53.585Z,100.00
2019-01-13T16:05:22.016Z,100.00
2019-01-13T16:07:50.867Z,100.00
2019-01-13T16:10:21.433Z,100.00
2019-01-13T16:12:50.117Z,100.00
2019-01-13T16:15:19.063Z,100.00
2019-01-13T16:17:47.826Z,100.00
2019-01-13T16:20:22.358Z,100.00
2019-01-13T16:22:51.338Z,100.00
2019-01-13T16:25:20.051Z,100.00
2019-01-13T16:27:48.558Z,100.00
2019-01-13T16:30:19.992Z,100.00
2019-01-13T16:32:48.777Z,100.00
2019-01-13T16:35:17.502Z,100.00
2019-01-13T16:37:46.117Z,100.00
2019-01-13T16:40:16.583Z,100.00
2019-01-13T16:42:45.287Z,100.00
2019-01-13T16:45:16.323Z,100.00
2019-01-13T16:47:45.380Z,100.00
2019-01-13T16:50:19.084Z,100.00
2019-01-13T16:52:50.068Z,100.00
2019-01-13T16:55:19.517Z,100.00
2019-01-13T16:57:48.089Z,100.00
2019-01-13T17:00:19.767Z,100.00
2019-01-13T17:02:48.336Z,100.00
2019-01-13T17:05:19.167Z,100.00
2019-01-13T17:07:48.034Z,100.00
2019-01-13T17:10:21.554Z,100.00
2019-01-13T17:12:50.338Z,100.00
2019-01-13T17:15:24.019Z,100.00
2019-01-13T17:17:52.725Z,100.00
2019-01-13T17:20:22.880Z,100.00
2019-01-13T17:22:51.685Z,100.00
2019-01-13T17:25:22.609Z,100.00
2019-01-13T17:27:51.378Z,100.00
2019-01-13T17:30:25.680Z,100.00
2019-01-13T17:32:54.118Z,100.00
2019-01-13T17:35:22.829Z,100.00
2019-01-13T17:37:51.746Z,100.00
2019-01-13T17:40:22.270Z,100.00
2019-01-13T17:42:50.868Z,100.00
2019-01-13T17:45:21.570Z,100.00
2019-01-13T17:47:50.340Z,100.00
2019-01-13T17:50:21.455Z,100.00
2019-01-13T17:52:50.066Z,100.00
2019-01-13T17:55:23.786Z,100.00
2019-01-13T17:57:52.400Z,100.00
2019-01-13T18:00:35.397Z,99.26
2019-01-13T18:03:07.341Z,98.88
2019-01-13T18:05:36.031Z,98.01
2019-01-13T18:08:05.094Z,97.83
2019-01-13T18:10:33.776Z,97.05
2019-01-13T18:13:02.570Z,96.76
2019-01-13T18:15:31.408Z,96.00
2019-01-13T18:17:59.906Z,95.26
2019-01-13T18:20:28.626Z,93.67
2019-01-13T18:22:57.529Z,92.86
2019-01-13T18:25:26.033Z,92.53
2019-01-13T18:27:54.480Z,91.21
2019-01-13T18:30:25.771Z,91.41
2019-01-13T18:32:54.659Z,90.13
2019-01-13T18:35:23.808Z,90.54
2019-01-13T18:37:52.635Z,91.17
2019-01-13T18:40:22.601Z,91.14
2019-01-13T18:42:51.448Z,91.31
2019-01-13T18:45:20.185Z,90.63
2019-01-13T18:47:48.689Z,90.99
2019-01-13T18:50:21.436Z,90.99
2019-01-13T18:53:04.613Z,90.73
2019-01-13T18:55:33.053Z,90.87
2019-01-13T18:58:01.494Z,90.39
2019-01-13T19:00:30.391Z,90.79
2019-01-13T19:02:58.823Z,91.18
2019-01-13T19:05:28.776Z,91.18
2019-01-13T19:07:57.582Z,90.90
2019-01-13T19:10:32.329Z,90.87
2019-01-13T19:13:09.382Z,90.65
2019-01-13T19:15:38.175Z,89.34
2019-01-13T19:18:06.937Z,88.97
2019-01-13T19:20:35.976Z,89.38
2019-01-13T19:23:05.127Z,88.31
2019-01-13T19:25:33.887Z,88.86
2019-01-13T19:28:02.724Z,88.44
2019-01-13T19:30:31.522Z,87.69
2019-01-13T19:33:00.097Z,87.25
2019-01-13T19:35:28.858Z,87.34
2019-01-13T19:37:57.591Z,87.45
2019-01-13T19:40:26.090Z,87.50
2019-01-13T19:42:54.835Z,87.95
2019-01-13T19:45:25.400Z,88.29
2019-01-13T19:47:54.036Z,88.02
2019-01-13T19:50:24.503Z,89.04
2019-01-13T19:52:53.226Z,89.78
2019-01-13T19:55:21.934Z,88.88
2019-01-13T19:57:50.792Z,87.51
2019-01-13T20:00:24.885Z,87.32
2019-01-13T20:02:53.553Z,86.62
2019-01-13T20:05:22.733Z,86.12
2019-01-13T20:07:52.870Z,86.01
2019-01-13T20:10:22.905Z,86.10
2019-01-13T20:12:51.876Z,86.43
2019-01-13T20:15:21.792Z,86.99
2019-01-13T20:17:50.542Z,86.74
2019-01-13T20:20:20.720Z,85.72
2019-01-13T20:22:49.426Z,85.54
2019-01-13T20:25:19.570Z,84.31
2019-01-13T20:27:48.414Z,83.91
2019-01-13T20:30:19.495Z,83.86
2019-01-13T20:32:48.133Z,84.64
2019-01-13T20:35:19.381Z,85.08
2019-01-13T20:37:47.491Z,86.32
2019-01-13T20:40:17.583Z,86.45
2019-01-13T20:42:47.589Z,86.16
2019-01-13T20:45:24.678Z,85.90
2019-01-13T20:47:53.574Z,85.88
2019-01-13T20:50:22.493Z,85.93
2019-01-13T20:52:51.083Z,85.71
2019-01-13T20:55:19.566Z,85.34
2019-01-13T20:57:48.269Z,83.62
2019-01-13T21:00:24.761Z,83.41
2019-01-13T21:02:53.633Z,83.00
2019-01-13T21:05:26.885Z,83.79
2019-01-13T21:07:53.572Z,83.21
2019-01-13T21:10:22.243Z,84.61
2019-01-13T21:12:51.097Z,86.13
2019-01-13T21:15:34.076Z,86.53
2019-01-13T21:18:02.509Z,88.03
2019-01-13T21:20:31.004Z,88.88
2019-01-13T21:22:59.720Z,89.18
2019-01-13T21:25:28.559Z,90.94
2019-01-13T21:27:58.898Z,90.58
2019-01-13T21:30:30.774Z,90.84
2019-01-13T21:32:59.618Z,90.15
2019-01-13T21:35:33.805Z,90.42
2019-01-13T21:37:59.250Z,89.22
2019-01-13T21:40:27.752Z,89.63
2019-01-13T21:42:56.463Z,89.79
2019-01-13T21:45:25.337Z,88.99
2019-01-13T21:47:54.119Z,90.51
2019-01-13T21:50:24.939Z,90.57
2019-01-13T21:52:53.798Z,91.67
2019-01-13T21:55:22.354Z,92.12
2019-01-13T21:57:50.771Z,93.33
2019-01-13T22:00:25.151Z,92.95
2019-01-13T22:02:53.822Z,93.27
2019-01-13T22:05:23.619Z,94.34
2019-01-13T22:07:52.340Z,93.88
2019-01-13T22:10:22.594Z,93.27
2019-01-13T22:12:51.103Z,91.71
2019-01-13T22:15:20.868Z,92.37
2019-01-13T22:17:49.425Z,91.55
2019-01-13T22:20:19.781Z,91.66
2019-01-13T22:22:48.373Z,91.40
2019-01-13T22:25:17.841Z,91.02
2019-01-13T22:27:46.335Z,90.73
2019-01-13T22:30:16.998Z,89.61
2019-01-13T22:32:45.574Z,90.48
2019-01-13T22:35:14.057Z,91.44
2019-01-13T22:37:42.658Z,92.45
2019-01-13T22:40:16.479Z,92.63
2019-01-13T22:42:45.033Z,92.85
2019-01-13T22:45:16.073Z,93.25
2019-01-13T22:47:44.505Z,93.68
2019-01-13T22:50:15.167Z,93.90
2019-01-13T22:52:43.780Z,95.03
2019-01-13T22:55:12.606Z,93.96
2019-01-13T22:57:41.022Z,92.95
2019-01-13T23:00:44.740Z,92.64
2019-01-13T23:03:13.187Z,91.55
2019-01-13T23:05:41.685Z,88.82
2019-01-13T23:08:10.218Z,88.42
2019-01-13T23:10:38.728Z,87.34
2019-01-13T23:13:07.145Z,87.88
2019-01-13T23:15:35.691Z,87.01
2019-01-13T23:18:04.282Z,87.03
2019-01-13T23:20:32.700Z,86.63
2019-01-13T23:23:01.146Z,86.82
2019-01-13T23:25:29.562Z,85.71
2019-01-13T23:27:57.982Z,86.22
2019-01-13T23:30:26.810Z,84.68
2019-01-13T23:32:55.474Z,85.07
2019-01-13T23:35:23.893Z,84.33
2019-01-13T23:37:52.489Z,84.48
2019-01-13T23:40:20.934Z,83.73
2019-01-13T23:42:49.497Z,83.78
2019-01-13T23:45:18.424Z,84.31
2019-01-13T23:47:46.843Z,84.54
2019-01-13T23:50:15.332Z,84.78
2019-01-13T23:52:43.879Z,84.73
2019-01-13T23:55:13.146Z,83.40
2019-01-13T23:57:41.625Z,83.46
